sensor_id;sensor_type;location;lat;lon;timestamp;pressure;altitude;pressure_sealevel;temperature;humidity
51083;BME280;37131;42.694;23.350;2022-10-16T00:01:29;96140.53;;;8.38;96.63
51083;BME280;37131;42.694;23.350;2022-10-16T00:03:56;96144.94;;;8.38;95.72
51083;BME280;37131;42.694;23.350;2022-10-16T00:06:22;96130.28;;;8.30;96.12
51083;BME280;37131;42.694;23.350;2022-10-16T00:08:48;96146.06;;;8.50;95.03
51083;BME280;37131;42.694;23.350;2022-10-16T00:13:40;96151.75;;;8.39;95.52
51083;BME280;37131;42.694;23.350;2022-10-16T00:16:07;96151.03;;;8.45;96.21
51083;BME280;37131;42.694;23.350;2022-10-16T00:18:32;96150.72;;;8.40;96.34
51083;BME280;37131;42.694;23.350;2022-10-16T00:21:06;96152.53;;;8.39;96.65
51083;BME280;37131;42.694;23.350;2022-10-16T00:23:32;96156.94;;;8.39;96.49
51083;BME280;37131;42.694;23.350;2022-10-16T00:26:01;96152.06;;;8.29;96.85
51083;BME280;37131;42.694;23.350;2022-10-16T00:28:27;96152.72;;;8.38;97.32
51083;BME280;37131;42.694;23.350;2022-10-16T00:30:53;96142.72;;;8.13;96.38
51083;BME280;37131;42.694;23.350;2022-10-16T00:33:19;96157.88;;;8.10;97.60
51083;BME280;37131;42.694;23.350;2022-10-16T00:35:44;96111.50;;;7.85;97.73
51083;BME280;37131;42.694;23.350;2022-10-16T00:38:10;96170.91;;;8.16;99.17
51083;BME280;37131;42.694;23.350;2022-10-16T00:40:35;96170.50;;;8.13;98.68
51083;BME280;37131;42.694;23.350;2022-10-16T00:43:02;96163.69;;;8.12;98.88
51083;BME280;37131;42.694;23.350;2022-10-16T00:45:29;96173.75;;;8.00;98.94
51083;BME280;37131;42.694;23.350;2022-10-16T00:47:56;96160.84;;;8.28;98.53
51083;BME280;37131;42.694;23.350;2022-10-16T00:52:53;96144.41;;;7.99;98.38
51083;BME280;37131;42.694;23.350;2022-10-16T00:55:20;96155.22;;;8.03;99.31
51083;BME280;37131;42.694;23.350;2022-10-16T00:57:46;96159.69;;;8.09;99.27
51083;BME280;37131;42.694;23.350;2022-10-16T01:00:15;96158.88;;;8.08;98.45
51083;BME280;37131;42.694;23.350;2022-10-16T01:02:41;96164.72;;;7.96;99.72
51083;BME280;37131;42.694;23.350;2022-10-16T01:05:07;96176.88;;;7.88;99.11
51083;BME280;37131;42.694;23.350;2022-10-16T01:07:56;96178.41;;;7.83;99.47
51083;BME280;37131;42.694;23.350;2022-10-16T01:18:01;96167.81;;;7.84;99.49
51083;BME280;37131;42.694;23.350;2022-10-16T01:20:31;96173.03;;;7.84;99.40
51083;BME280;37131;42.694;23.350;2022-10-16T01:23:07;96168.94;;;7.75;100.00
51083;BME280;37131;42.694;23.350;2022-10-16T01:28:24;96107.44;;;7.76;97.68
51083;BME280;37131;42.694;23.350;2022-10-16T01:30:56;96156.13;;;7.95;97.82
51083;BME280;37131;42.694;23.350;2022-10-16T01:33:28;96152.34;;;7.76;98.43
51083;BME280;37131;42.694;23.350;2022-10-16T01:35:59;96165.16;;;7.78;99.58
51083;BME280;37131;42.694;23.350;2022-10-16T01:38:33;96169.50;;;7.92;99.21
51083;BME280;37131;42.694;23.350;2022-10-16T01:41:04;96156.63;;;7.84;99.38
51083;BME280;37131;42.694;23.350;2022-10-16T01:43:37;96165.88;;;7.71;98.42
51083;BME280;37131;42.694;23.350;2022-10-16T01:46:05;96164.06;;;7.72;100.00
51083;BME280;37131;42.694;23.350;2022-10-16T01:48:31;96167.94;;;7.76;99.32
51083;BME280;37131;42.694;23.350;2022-10-16T01:51:09;96168.63;;;7.85;99.71
51083;BME280;37131;42.694;23.350;2022-10-16T01:53:37;96169.78;;;7.82;99.14
51083;BME280;37131;42.694;23.350;2022-10-16T01:56:08;96181.03;;;7.68;98.86
51083;BME280;37131;42.694;23.350;2022-10-16T01:58:38;96183.66;;;7.53;100.00
51083;BME280;37131;42.694;23.350;2022-10-16T02:01:07;96186.69;;;7.57;99.67
51083;BME280;37131;42.694;23.350;2022-10-16T02:03:37;96184.19;;;7.63;100.00
51083;BME280;37131;42.694;23.350;2022-10-16T02:06:04;96182.59;;;7.47;100.00
51083;BME280;37131;42.694;23.350;2022-10-16T02:08:30;96184.47;;;7.38;100.00
51083;BME280;37131;42.694;23.350;2022-10-16T02:10:57;96193.50;;;7.43;100.00
51083;BME280;37131;42.694;23.350;2022-10-16T02:13:28;96191.34;;;7.46;100.00
51083;BME280;37131;42.694;23.350;2022-10-16T02:15:54;96189.75;;;7.30;100.00
51083;BME280;37131;42.694;23.350;2022-10-16T02:18:20;96205.66;;;7.27;100.00
51083;BME280;37131;42.694;23.350;2022-10-16T02:20:51;96201.13;;;7.29;100.00
51083;BME280;37131;42.694;23.350;2022-10-16T02:23:24;96200.94;;;7.31;100.00
51083;BME280;37131;42.694;23.350;2022-10-16T02:25:53;96205.78;;;7.34;100.00
51083;BME280;37131;42.694;23.350;2022-10-16T02:28:23;96207.91;;;7.30;100.00
51083;BME280;37131;42.694;23.350;2022-10-16T02:31:03;96213.72;;;7.17;100.00
51083;BME280;37131;42.694;23.350;2022-10-16T02:33:31;96196.81;;;7.07;100.00
51083;BME280;37131;42.694;23.350;2022-10-16T02:35:58;96123.34;;;6.46;100.00
51083;BME280;37131;42.694;23.350;2022-10-16T02:38:25;96207.72;;;7.17;100.00
51083;BME280;37131;42.694;23.350;2022-10-16T02:40:51;96205.41;;;7.07;99.97
51083;BME280;37131;42.694;23.350;2022-10-16T02:43:16;96209.25;;;7.11;100.00
51083;BME280;37131;42.694;23.350;2022-10-16T02:45:42;96206.47;;;7.28;100.00
51083;BME280;37131;42.694;23.350;2022-10-16T02:48:08;96211.75;;;7.34;97.64
51083;BME280;37131;42.694;23.350;2022-10-16T02:50:33;96217.19;;;7.25;98.75
51083;BME280;37131;42.694;23.350;2022-10-16T02:52:59;96221.84;;;7.14;99.36
51083;BME280;37131;42.694;23.350;2022-10-16T02:55:24;96222.38;;;7.10;99.00
51083;BME280;37131;42.694;23.350;2022-10-16T02:57:49;96224.53;;;7.36;96.35
51083;BME280;37131;42.694;23.350;2022-10-16T03:00:16;96220.50;;;7.18;97.31
51083;BME280;37131;42.694;23.350;2022-10-16T03:02:42;96230.63;;;6.98;97.47
51083;BME280;37131;42.694;23.350;2022-10-16T03:05:08;96228.81;;;6.84;98.63
51083;BME280;37131;42.694;23.350;2022-10-16T03:07:34;96228.97;;;6.82;98.45
51083;BME280;37131;42.694;23.350;2022-10-16T03:09:59;96230.47;;;6.77;98.77
51083;BME280;37131;42.694;23.350;2022-10-16T03:12:28;96226.25;;;6.76;99.80
51083;BME280;37131;42.694;23.350;2022-10-16T03:14:55;96232.78;;;6.72;99.02
51083;BME280;37131;42.694;23.350;2022-10-16T03:17:22;96239.53;;;6.58;100.00
51083;BME280;37131;42.694;23.350;2022-10-16T03:19:47;96237.47;;;6.53;100.00
51083;BME280;37131;42.694;23.350;2022-10-16T03:22:12;96234.66;;;6.63;100.00
51083;BME280;37131;42.694;23.350;2022-10-16T03:24:38;96240.16;;;6.60;100.00
51083;BME280;37131;42.694;23.350;2022-10-16T03:27:03;96233.31;;;6.67;100.00
51083;BME280;37131;42.694;23.350;2022-10-16T03:29:28;96237.91;;;6.57;100.00
51083;BME280;37131;42.694;23.350;2022-10-16T03:31:55;96242.19;;;6.49;100.00
51083;BME280;37131;42.694;23.350;2022-10-16T03:34:21;96238.75;;;6.57;100.00
51083;BME280;37131;42.694;23.350;2022-10-16T03:36:46;96244.94;;;6.48;100.00
51083;BME280;37131;42.694;23.350;2022-10-16T03:39:12;96237.66;;;6.52;100.00
51083;BME280;37131;42.694;23.350;2022-10-16T03:41:37;96244.63;;;6.51;100.00
51083;BME280;37131;42.694;23.350;2022-10-16T03:44:02;96239.31;;;6.44;100.00
51083;BME280;37131;42.694;23.350;2022-10-16T03:46:28;96235.38;;;6.72;100.00
51083;BME280;37131;42.694;23.350;2022-10-16T03:48:54;96238.91;;;6.56;100.00
51083;BME280;37131;42.694;23.350;2022-10-16T03:51:20;96188.16;;;6.23;100.00
51083;BME280;37131;42.694;23.350;2022-10-16T03:53:46;96168.53;;;6.06;100.00
51083;BME280;37131;42.694;23.350;2022-10-16T03:56:11;96233.69;;;6.41;100.00
51083;BME280;37131;42.694;23.350;2022-10-16T03:58:36;96241.47;;;6.41;100.00
51083;BME280;37131;42.694;23.350;2022-10-16T04:01:02;96224.75;;;6.43;100.00
51083;BME280;37131;42.694;23.350;2022-10-16T04:03:27;96231.31;;;6.54;100.00
51083;BME280;37131;42.694;23.350;2022-10-16T04:05:53;96233.69;;;6.41;100.00
51083;BME280;37131;42.694;23.350;2022-10-16T04:08:18;96241.16;;;6.36;100.00
51083;BME280;37131;42.694;23.350;2022-10-16T04:10:43;96194.25;;;6.07;100.00
51083;BME280;37131;42.694;23.350;2022-10-16T04:13:09;96243.31;;;6.32;100.00
51083;BME280;37131;42.694;23.350;2022-10-16T04:15:35;96246.28;;;6.21;100.00
51083;BME280;37131;42.694;23.350;2022-10-16T04:18:00;96235.88;;;6.29;100.00
51083;BME280;37131;42.694;23.350;2022-10-16T04:20:25;96241.28;;;6.19;100.00
51083;BME280;37131;42.694;23.350;2022-10-16T04:22:51;96247.31;;;6.35;100.00
51083;BME280;37131;42.694;23.350;2022-10-16T04:25:16;96252.84;;;6.31;100.00
51083;BME280;37131;42.694;23.350;2022-10-16T04:27:42;96247.56;;;6.25;100.00
51083;BME280;37131;42.694;23.350;2022-10-16T04:30:07;96248.66;;;6.30;100.00
51083;BME280;37131;42.694;23.350;2022-10-16T04:32:33;96248.88;;;6.44;100.00
51083;BME280;37131;42.694;23.350;2022-10-16T04:34:58;96199.34;;;5.92;100.00
51083;BME280;37131;42.694;23.350;2022-10-16T04:37:25;96263.09;;;6.25;100.00
51083;BME280;37131;42.694;23.350;2022-10-16T04:39:51;96252.25;;;6.21;100.00
51083;BME280;37131;42.694;23.350;2022-10-16T04:42:16;96261.88;;;6.36;100.00
51083;BME280;37131;42.694;23.350;2022-10-16T04:44:42;96265.34;;;6.28;100.00
51083;BME280;37131;42.694;23.350;2022-10-16T04:47:07;96267.59;;;6.31;100.00
51083;BME280;37131;42.694;23.350;2022-10-16T04:49:33;96265.25;;;6.36;100.00
51083;BME280;37131;42.694;23.350;2022-10-16T04:51:58;96270.50;;;6.28;100.00
51083;BME280;37131;42.694;23.350;2022-10-16T04:54:23;96275.91;;;6.18;100.00
51083;BME280;37131;42.694;23.350;2022-10-16T04:56:49;96283.66;;;6.18;100.00
51083;BME280;37131;42.694;23.350;2022-10-16T04:59:17;96284.78;;;6.24;100.00
51083;BME280;37131;42.694;23.350;2022-10-16T05:01:43;96286.25;;;6.18;100.00
51083;BME280;37131;42.694;23.350;2022-10-16T05:04:08;96296.75;;;6.25;100.00
51083;BME280;37131;42.694;23.350;2022-10-16T05:06:34;96297.03;;;6.30;100.00
51083;BME280;37131;42.694;23.350;2022-10-16T05:08:59;96287.53;;;6.22;100.00
51083;BME280;37131;42.694;23.350;2022-10-16T05:11:25;96273.78;;;6.22;100.00
51083;BME280;37131;42.694;23.350;2022-10-16T05:13:50;96289.22;;;6.38;100.00
51083;BME280;37131;42.694;23.350;2022-10-16T05:16:16;96292.72;;;6.22;100.00
51083;BME280;37131;42.694;23.350;2022-10-16T05:18:41;96287.09;;;6.19;100.00
51083;BME280;37131;42.694;23.350;2022-10-16T05:21:07;96285.47;;;6.18;100.00
51083;BME280;37131;42.694;23.350;2022-10-16T05:23:32;96305.81;;;6.29;100.00
51083;BME280;37131;42.694;23.350;2022-10-16T05:25:59;96303.53;;;6.26;100.00
51083;BME280;37131;42.694;23.350;2022-10-16T05:28:29;96305.75;;;6.37;100.00
51083;BME280;37131;42.694;23.350;2022-10-16T05:30:55;96302.81;;;6.40;100.00
51083;BME280;37131;42.694;23.350;2022-10-16T05:33:23;96303.16;;;6.37;100.00
51083;BME280;37131;42.694;23.350;2022-10-16T05:35:49;96285.03;;;6.37;100.00
51083;BME280;37131;42.694;23.350;2022-10-16T05:38:15;96302.00;;;6.40;100.00
51083;BME280;37131;42.694;23.350;2022-10-16T05:40:41;96302.06;;;6.55;100.00
51083;BME280;37131;42.694;23.350;2022-10-16T05:43:06;96303.09;;;6.68;100.00
51083;BME280;37131;42.694;23.350;2022-10-16T05:45:32;96306.09;;;6.34;100.00
51083;BME280;37131;42.694;23.350;2022-10-16T05:47:57;96313.84;;;6.34;100.00
51083;BME280;37131;42.694;23.350;2022-10-16T05:50:22;96311.72;;;6.38;100.00
51083;BME280;37131;42.694;23.350;2022-10-16T05:52:48;96319.75;;;6.51;100.00
51083;BME280;37131;42.694;23.350;2022-10-16T05:55:13;96322.50;;;6.49;100.00
51083;BME280;37131;42.694;23.350;2022-10-16T05:57:38;96321.31;;;6.60;100.00
51083;BME280;37131;42.694;23.350;2022-10-16T06:00:05;96313.38;;;6.62;99.93
51083;BME280;37131;42.694;23.350;2022-10-16T06:02:30;96337.28;;;6.72;99.21
51083;BME280;37131;42.694;23.350;2022-10-16T06:04:56;96328.28;;;6.83;98.73
51083;BME280;37131;42.694;23.350;2022-10-16T06:07:22;96342.34;;;6.89;97.24
51083;BME280;37131;42.694;23.350;2022-10-16T06:09:51;96330.41;;;6.79;97.55
51083;BME280;37131;42.694;23.350;2022-10-16T06:12:16;96346.38;;;6.91;98.04
51083;BME280;37131;42.694;23.350;2022-10-16T06:14:42;96344.56;;;7.15;97.41
51083;BME280;37131;42.694;23.350;2022-10-16T06:17:07;96326.25;;;6.93;97.46
51083;BME280;37131;42.694;23.350;2022-10-16T06:19:32;96349.31;;;7.26;97.54
51083;BME280;37131;42.694;23.350;2022-10-16T06:21:58;96354.28;;;7.13;98.13
51083;BME280;37131;42.694;23.350;2022-10-16T06:24:24;96346.41;;;7.29;95.76
51083;BME280;37131;42.694;23.350;2022-10-16T06:26:50;96347.91;;;7.24;95.88
51083;BME280;37131;42.694;23.350;2022-10-16T06:29:15;96353.09;;;7.24;96.99
51083;BME280;37131;42.694;23.350;2022-10-16T06:31:40;96356.66;;;7.23;96.42
51083;BME280;37131;42.694;23.350;2022-10-16T06:34:09;96350.00;;;7.43;95.20
51083;BME280;37131;42.694;23.350;2022-10-16T06:36:36;96355.91;;;7.67;94.85
51083;BME280;37131;42.694;23.350;2022-10-16T06:39:02;96351.25;;;7.47;93.56
51083;BME280;37131;42.694;23.350;2022-10-16T06:41:28;96362.81;;;7.60;93.82
51083;BME280;37131;42.694;23.350;2022-10-16T06:43:53;96357.72;;;7.96;90.92
51083;BME280;37131;42.694;23.350;2022-10-16T06:46:22;96360.75;;;7.85;89.96
51083;BME280;37131;42.694;23.350;2022-10-16T06:48:48;96301.75;;;7.34;92.12
51083;BME280;37131;42.694;23.350;2022-10-16T06:51:21;96374.03;;;7.75;91.50
51083;BME280;37131;42.694;23.350;2022-10-16T06:53:50;96371.03;;;8.23;89.33
51083;BME280;37131;42.694;23.350;2022-10-16T06:56:18;96373.91;;;8.13;89.39
51083;BME280;37131;42.694;23.350;2022-10-16T06:58:45;96381.28;;;7.95;90.66
51083;BME280;37131;42.694;23.350;2022-10-16T07:01:11;96375.34;;;8.01;90.73
51083;BME280;37131;42.694;23.350;2022-10-16T07:03:42;96322.28;;;7.88;89.99
51083;BME280;37131;42.694;23.350;2022-10-16T07:06:09;96381.41;;;8.38;88.50
51083;BME280;37131;42.694;23.350;2022-10-16T07:08:37;96376.81;;;8.70;88.19
51083;BME280;37131;42.694;23.350;2022-10-16T07:11:08;96382.09;;;8.98;87.18
51083;BME280;37131;42.694;23.350;2022-10-16T07:13:35;96388.03;;;8.92;85.96
51083;BME280;37131;42.694;23.350;2022-10-16T07:16:12;96386.97;;;8.50;87.98
51083;BME280;37131;42.694;23.350;2022-10-16T07:18:38;96322.69;;;8.07;86.40
51083;BME280;37131;42.694;23.350;2022-10-16T07:21:13;96384.94;;;8.82;87.73
51083;BME280;37131;42.694;23.350;2022-10-16T07:23:39;96385.38;;;9.07;85.59
51083;BME280;37131;42.694;23.350;2022-10-16T07:26:05;96388.19;;;9.34;85.57
51083;BME280;37131;42.694;23.350;2022-10-16T07:28:31;96379.50;;;9.48;86.87
51083;BME280;37131;42.694;23.350;2022-10-16T07:31:09;96385.88;;;9.74;84.46
51083;BME280;37131;42.694;23.350;2022-10-16T07:33:36;96343.63;;;9.43;83.73
51083;BME280;37131;42.694;23.350;2022-10-16T07:36:01;96392.63;;;9.33;83.17
51083;BME280;37131;42.694;23.350;2022-10-16T07:38:27;96388.63;;;9.37;83.50
51083;BME280;37131;42.694;23.350;2022-10-16T07:41:00;96384.13;;;9.81;81.66
51083;BME280;37131;42.694;23.350;2022-10-16T07:43:26;96384.75;;;10.18;79.61
51083;BME280;37131;42.694;23.350;2022-10-16T07:45:53;96376.97;;;10.31;80.14
51083;BME280;37131;42.694;23.350;2022-10-16T07:48:19;96380.13;;;10.20;80.42
51083;BME280;37131;42.694;23.350;2022-10-16T07:50:45;96386.19;;;10.27;79.36
51083;BME280;37131;42.694;23.350;2022-10-16T07:53:11;96387.34;;;10.53;78.66
51083;BME280;37131;42.694;23.350;2022-10-16T07:55:37;96387.00;;;10.83;78.59
51083;BME280;37131;42.694;23.350;2022-10-16T07:58:02;96386.63;;;10.79;77.80
51083;BME280;37131;42.694;23.350;2022-10-16T08:00:28;96388.81;;;10.89;76.70
51083;BME280;37131;42.694;23.350;2022-10-16T08:02:53;96393.59;;;10.65;77.98
51083;BME280;37131;42.694;23.350;2022-10-16T08:05:19;96397.22;;;10.71;78.80
51083;BME280;37131;42.694;23.350;2022-10-16T08:07:50;96384.59;;;10.81;77.16
51083;BME280;37131;42.694;23.350;2022-10-16T08:10:21;96393.41;;;10.80;78.93
51083;BME280;37131;42.694;23.350;2022-10-16T08:12:47;96386.25;;;11.16;77.07
51083;BME280;37131;42.694;23.350;2022-10-16T08:15:12;96388.72;;;11.44;75.30
51083;BME280;37131;42.694;23.350;2022-10-16T08:17:38;96377.44;;;11.30;75.88
51083;BME280;37131;42.694;23.350;2022-10-16T08:20:04;96370.22;;;11.52;74.67
51083;BME280;37131;42.694;23.350;2022-10-16T08:22:30;96388.28;;;11.27;75.16
51083;BME280;37131;42.694;23.350;2022-10-16T08:24:56;96337.06;;;11.39;73.94
51083;BME280;37131;42.694;23.350;2022-10-16T08:27:21;96317.97;;;11.59;72.75
51083;BME280;37131;42.694;23.350;2022-10-16T08:29:48;96286.63;;;11.59;72.11
51083;BME280;37131;42.694;23.350;2022-10-16T08:32:14;96373.41;;;11.74;72.52
51083;BME280;37131;42.694;23.350;2022-10-16T08:34:39;96369.78;;;11.96;71.89
51083;BME280;37131;42.694;23.350;2022-10-16T08:37:05;96376.41;;;11.85;72.31
51083;BME280;37131;42.694;23.350;2022-10-16T08:39:32;96367.44;;;12.33;71.08
51083;BME280;37131;42.694;23.350;2022-10-16T08:42:15;96363.03;;;12.26;69.69
51083;BME280;37131;42.694;23.350;2022-10-16T08:47:45;96374.72;;;12.76;68.08
51083;BME280;37131;42.694;23.350;2022-10-16T08:50:20;96378.16;;;13.08;65.15
51083;BME280;37131;42.694;23.350;2022-10-16T08:52:47;96375.16;;;13.30;64.42
51083;BME280;37131;42.694;23.350;2022-10-16T08:55:43;96378.09;;;12.83;60.53
51083;BME280;37131;42.694;23.350;2022-10-16T08:58:13;96326.28;;;12.60;61.13
51083;BME280;37131;42.694;23.350;2022-10-16T09:00:39;96372.31;;;13.38;61.64
51083;BME280;37131;42.694;23.350;2022-10-16T09:03:24;96376.47;;;13.71;59.38
51083;BME280;37131;42.694;23.350;2022-10-16T09:14:07;96366.31;;;14.37;54.84
51083;BME280;37131;42.694;23.350;2022-10-16T09:16:40;96364.81;;;14.60;55.04
51083;BME280;37131;42.694;23.350;2022-10-16T09:21:48;96365.97;;;14.82;53.35
51083;BME280;37131;42.694;23.350;2022-10-16T09:24:17;96365.34;;;14.99;53.06
51083;BME280;37131;42.694;23.350;2022-10-16T09:26:44;96365.72;;;14.16;54.12
51083;BME280;37131;42.694;23.350;2022-10-16T09:29:18;96364.31;;;14.51;52.85
51083;BME280;37131;42.694;23.350;2022-10-16T09:31:47;96371.53;;;14.74;52.91
51083;BME280;37131;42.694;23.350;2022-10-16T09:36:44;96360.84;;;14.87;51.36
51083;BME280;37131;42.694;23.350;2022-10-16T09:39:11;96357.94;;;14.77;52.10
51083;BME280;37131;42.694;23.350;2022-10-16T09:41:38;96364.13;;;14.83;52.05
51083;BME280;37131;42.694;23.350;2022-10-16T09:44:23;96360.59;;;14.59;52.01
51083;BME280;37131;42.694;23.350;2022-10-16T09:47:11;96358.47;;;14.67;51.19
51083;BME280;37131;42.694;23.350;2022-10-16T09:49:38;96352.47;;;15.09;50.85
51083;BME280;37131;42.694;23.350;2022-10-16T09:52:12;96354.88;;;15.22;51.39
51083;BME280;37131;42.694;23.350;2022-10-16T09:54:52;96343.06;;;15.01;50.95
51083;BME280;37131;42.694;23.350;2022-10-16T09:57:18;96337.66;;;15.26;51.23
51083;BME280;37131;42.694;23.350;2022-10-16T09:59:52;96348.41;;;15.60;50.28
51083;BME280;37131;42.694;23.350;2022-10-16T10:02:23;96342.50;;;14.99;51.04
51083;BME280;37131;42.694;23.350;2022-10-16T10:04:53;96336.75;;;15.56;50.73
51083;BME280;37131;42.694;23.350;2022-10-16T10:07:32;96335.38;;;15.89;48.85
51083;BME280;37131;42.694;23.350;2022-10-16T10:09:59;96333.94;;;16.22;50.18
51083;BME280;37131;42.694;23.350;2022-10-16T10:12:30;96328.41;;;16.36;48.53
51083;BME280;37131;42.694;23.350;2022-10-16T10:15:09;96330.41;;;16.28;48.20
51083;BME280;37131;42.694;23.350;2022-10-16T10:17:45;96327.09;;;16.21;48.71
51083;BME280;37131;42.694;23.350;2022-10-16T10:20:23;96324.91;;;16.30;49.65
51083;BME280;37131;42.694;23.350;2022-10-16T10:22:49;96327.69;;;16.52;47.23
51083;BME280;37131;42.694;23.350;2022-10-16T10:25:38;96322.59;;;16.62;48.62
51083;BME280;37131;42.694;23.350;2022-10-16T10:31:03;96317.22;;;16.86;48.59
51083;BME280;37131;42.694;23.350;2022-10-16T10:38:53;96311.31;;;16.79;48.73
51083;BME280;37131;42.694;23.350;2022-10-16T10:57:35;96293.47;;;17.32;45.11
51083;BME280;37131;42.694;23.350;2022-10-16T11:05:52;96285.16;;;16.60;43.08
51083;BME280;37131;42.694;23.350;2022-10-16T11:11:02;96283.66;;;16.93;44.98
51083;BME280;37131;42.694;23.350;2022-10-16T11:16:46;96278.94;;;17.12;45.43
51083;BME280;37131;42.694;23.350;2022-10-16T11:22:02;96270.94;;;17.24;43.22
51083;BME280;37131;42.694;23.350;2022-10-16T11:25:02;96270.94;;;17.24;44.75
51083;BME280;37131;42.694;23.350;2022-10-16T11:27:38;96268.75;;;17.55;44.01
51083;BME280;37131;42.694;23.350;2022-10-16T11:30:14;96254.03;;;17.59;44.75
51083;BME280;37131;42.694;23.350;2022-10-16T11:33:12;96265.63;;;17.58;42.53
51083;BME280;37131;42.694;23.350;2022-10-16T11:46:44;96252.84;;;18.66;41.24
51083;BME280;37131;42.694;23.350;2022-10-16T11:49:15;96263.59;;;19.14;41.09
51083;BME280;37131;42.694;23.350;2022-10-16T11:51:48;96259.09;;;19.14;40.70
51083;BME280;37131;42.694;23.350;2022-10-16T11:54:39;96269.81;;;18.43;41.93
51083;BME280;37131;42.694;23.350;2022-10-16T11:57:13;96256.66;;;18.20;41.40
51083;BME280;37131;42.694;23.350;2022-10-16T12:00:04;96262.97;;;18.19;42.74
51083;BME280;37131;42.694;23.350;2022-10-16T12:02:33;96257.84;;;18.35;40.57
51083;BME280;37131;42.694;23.350;2022-10-16T12:05:15;96263.53;;;18.49;42.65
51083;BME280;37131;42.694;23.350;2022-10-16T12:07:51;96264.09;;;18.01;42.79
51083;BME280;37131;42.694;23.350;2022-10-16T12:10:27;96259.56;;;18.19;42.24
51083;BME280;37131;42.694;23.350;2022-10-16T12:12:54;96264.44;;;18.32;42.04
51083;BME280;37131;42.694;23.350;2022-10-16T12:15:28;96258.09;;;18.33;42.25
51083;BME280;37131;42.694;23.350;2022-10-16T12:17:54;96250.59;;;18.47;42.59
51083;BME280;37131;42.694;23.350;2022-10-16T12:20:27;96259.00;;;18.71;42.53
51083;BME280;37131;42.694;23.350;2022-10-16T12:23:16;96252.75;;;18.83;40.54
51083;BME280;37131;42.694;23.350;2022-10-16T12:25:54;96246.97;;;20.24;39.77
51083;BME280;37131;42.694;23.350;2022-10-16T12:28:22;96240.44;;;21.09;38.20
51083;BME280;37131;42.694;23.350;2022-10-16T12:30:56;96239.63;;;21.24;37.21
51083;BME280;37131;42.694;23.350;2022-10-16T12:33:26;96244.06;;;20.26;37.24
51083;BME280;37131;42.694;23.350;2022-10-16T12:35:52;96240.81;;;20.03;38.96
51083;BME280;37131;42.694;23.350;2022-10-16T12:38:25;96253.34;;;19.70;37.42
51083;BME280;37131;42.694;23.350;2022-10-16T12:41:00;96256.25;;;19.21;37.70
51083;BME280;37131;42.694;23.350;2022-10-16T12:46:21;96258.25;;;19.08;39.29
51083;BME280;37131;42.694;23.350;2022-10-16T12:48:47;96255.19;;;19.22;40.58
51083;BME280;37131;42.694;23.350;2022-10-16T12:54:01;96261.22;;;19.17;40.25
51083;BME280;37131;42.694;23.350;2022-10-16T13:10:30;96268.22;;;18.69;39.00
51083;BME280;37131;42.694;23.350;2022-10-16T13:16:12;96270.38;;;18.45;37.76
51083;BME280;37131;42.694;23.350;2022-10-16T13:27:09;96267.34;;;17.69;40.31
51083;BME280;37131;42.694;23.350;2022-10-16T13:29:41;96260.59;;;17.96;40.22
51083;BME280;37131;42.694;23.350;2022-10-16T13:32:09;96272.47;;;17.76;40.37
51083;BME280;37131;42.694;23.350;2022-10-16T13:34:44;96266.50;;;17.64;41.58
51083;BME280;37131;42.694;23.350;2022-10-16T13:37:24;96271.25;;;17.84;40.71
51083;BME280;37131;42.694;23.350;2022-10-16T13:39:50;96272.75;;;17.80;40.41
51083;BME280;37131;42.694;23.350;2022-10-16T13:42:25;96269.69;;;17.66;38.83
51083;BME280;37131;42.694;23.350;2022-10-16T13:44:53;96279.91;;;17.23;38.17
51083;BME280;37131;42.694;23.350;2022-10-16T13:47:23;96268.34;;;17.46;38.48
51083;BME280;37131;42.694;23.350;2022-10-16T13:50:27;96276.13;;;17.36;38.40
51083;BME280;37131;42.694;23.350;2022-10-16T13:53:14;96271.09;;;17.51;38.77
51083;BME280;37131;42.694;23.350;2022-10-16T13:55:40;96275.22;;;17.47;37.86
51083;BME280;37131;42.694;23.350;2022-10-16T13:58:12;96277.31;;;17.45;38.29
51083;BME280;37131;42.694;23.350;2022-10-16T14:00:38;96281.63;;;17.51;37.38
51083;BME280;37131;42.694;23.350;2022-10-16T14:03:06;96272.41;;;17.32;38.24
51083;BME280;37131;42.694;23.350;2022-10-16T14:05:49;96283.97;;;17.31;37.84
51083;BME280;37131;42.694;23.350;2022-10-16T14:08:15;96288.19;;;17.49;38.39
51083;BME280;37131;42.694;23.350;2022-10-16T14:10:40;96295.63;;;17.35;37.90
51083;BME280;37131;42.694;23.350;2022-10-16T14:13:07;96281.47;;;16.90;38.49
51083;BME280;37131;42.694;23.350;2022-10-16T14:15:38;96295.81;;;16.82;38.30
51083;BME280;37131;42.694;23.350;2022-10-16T14:18:03;96280.59;;;16.84;39.29
51083;BME280;37131;42.694;23.350;2022-10-16T14:20:33;96287.66;;;17.13;39.00
51083;BME280;37131;42.694;23.350;2022-10-16T14:23:04;96304.56;;;17.00;38.03
51083;BME280;37131;42.694;23.350;2022-10-16T14:25:31;96297.88;;;16.92;38.25
51083;BME280;37131;42.694;23.350;2022-10-16T14:28:04;96295.47;;;16.91;38.93
51083;BME280;37131;42.694;23.350;2022-10-16T14:30:32;96293.66;;;16.62;39.45
51083;BME280;37131;42.694;23.350;2022-10-16T14:33:01;96309.44;;;16.91;38.81
51083;BME280;37131;42.694;23.350;2022-10-16T14:37:53;96308.44;;;16.80;38.87
51083;BME280;37131;42.694;23.350;2022-10-16T14:40:23;96305.13;;;17.02;38.95
51083;BME280;37131;42.694;23.350;2022-10-16T14:42:50;96308.09;;;17.06;37.61
51083;BME280;37131;42.694;23.350;2022-10-16T14:45:22;96291.56;;;16.81;38.69
51083;BME280;37131;42.694;23.350;2022-10-16T14:47:57;96317.16;;;16.52;39.35
51083;BME280;37131;42.694;23.350;2022-10-16T14:50:23;96318.91;;;16.63;38.86
51083;BME280;37131;42.694;23.350;2022-10-16T14:52:49;96323.88;;;16.60;38.95
51083;BME280;37131;42.694;23.350;2022-10-16T14:55:15;96283.38;;;16.20;40.00
51083;BME280;37131;42.694;23.350;2022-10-16T14:57:40;96326.81;;;16.63;39.54